createdAt,value
2019-02-14T00:00:38.810Z,6.35
2019-02-14T00:03:11.043Z,6.75
2019-02-14T00:05:43.986Z,6.97
2019-02-14T00:08:16.248Z,6.65
2019-02-14T00:10:48.497Z,8.48
2019-02-14T00:13:20.732Z,7.70
2019-02-14T00:15:53.000Z,8.40
2019-02-14T00:18:25.245Z,7.87
2019-02-14T00:20:57.538Z,8.25
2019-02-14T00:23:29.772Z,8.53
2019-02-14T00:26:02.004Z,8.70
2019-02-14T00:28:34.254Z,8.98
2019-02-14T00:31:06.502Z,8.75
2019-02-14T00:33:38.982Z,9.65
2019-02-14T00:36:11.260Z,9.25
2019-02-14T00:38:43.495Z,10.63
2019-02-14T00:41:16.118Z,9.63
2019-02-14T00:43:48.343Z,9.90
2019-02-14T00:46:20.582Z,11.88
2019-02-14T00:48:52.828Z,10.75
2019-02-14T00:51:25.092Z,11.08
2019-02-14T00:53:57.321Z,11.70
2019-02-14T00:56:29.560Z,9.75
2019-02-14T00:59:01.797Z,8.73
2019-02-14T01:01:34.048Z,9.03
2019-02-14T01:04:06.282Z,8.48
2019-02-14T01:06:39.047Z,8.88
2019-02-14T01:09:11.304Z,8.00
2019-02-14T01:11:43.548Z,7.80
2019-02-14T01:14:15.780Z,8.48
2019-02-14T01:16:48.020Z,8.60
2019-02-14T01:19:20.250Z,11.55
2019-02-14T01:21:52.492Z,10.98
2019-02-14T01:24:24.751Z,16.25
2019-02-14T01:26:57.004Z,12.13
2019-02-14T01:29:29.266Z,11.28
2019-02-14T01:32:01.572Z,9.53
2019-02-14T01:34:33.828Z,11.57
2019-02-14T01:37:06.113Z,11.95
2019-02-14T01:39:39.095Z,8.50
2019-02-14T01:42:11.331Z,8.40
2019-02-14T01:44:43.579Z,7.42
2019-02-14T01:47:15.879Z,7.47
2019-02-14T01:49:48.158Z,7.42
2019-02-14T01:52:20.472Z,7.53
2019-02-14T01:54:52.731Z,7.70
2019-02-14T01:57:24.978Z,7.03
2019-02-14T01:59:57.239Z,6.90
2019-02-14T02:02:29.500Z,8.73
2019-02-14T02:05:02.727Z,9.85
2019-02-14T02:07:34.952Z,8.80
2019-02-14T02:10:08.588Z,9.85
2019-02-14T02:12:40.862Z,7.60
2019-02-14T02:15:13.672Z,7.30
2019-02-14T02:17:45.927Z,7.33
2019-02-14T02:20:18.177Z,7.28
2019-02-14T02:22:50.410Z,7.05
2019-02-14T02:25:22.662Z,7.83
2019-02-14T02:27:54.890Z,7.30
2019-02-14T02:30:28.138Z,6.65
2019-02-14T02:33:00.374Z,6.83
2019-02-14T02:35:33.565Z,8.05
2019-02-14T02:38:05.830Z,6.83
2019-02-14T02:40:38.067Z,6.20
2019-02-14T02:43:10.291Z,6.97
2019-02-14T02:45:42.624Z,9.38
2019-02-14T02:48:14.967Z,10.60
2019-02-14T02:50:47.202Z,10.15
2019-02-14T02:53:19.431Z,13.65
2019-02-14T02:55:51.682Z,10.43
2019-02-14T02:58:23.922Z,8.85
2019-02-14T03:00:56.174Z,7.53
2019-02-14T03:03:28.390Z,7.10
2019-02-14T03:06:08.623Z,7.03
2019-02-14T03:08:34.571Z,7.08
2019-02-14T03:11:06.813Z,9.13
2019-02-14T03:13:39.486Z,10.92
2019-02-14T03:16:11.724Z,10.35
2019-02-14T03:18:43.953Z,10.85
2019-02-14T03:21:16.201Z,7.78
2019-02-14T03:23:48.415Z,8.55
2019-02-14T03:26:21.133Z,8.58
2019-02-14T03:28:53.395Z,9.63
2019-02-14T03:31:25.626Z,10.15
2019-02-14T03:33:57.946Z,9.63
2019-02-14T03:36:30.181Z,9.10
2019-02-14T03:39:02.784Z,9.43
2019-02-14T03:41:35.047Z,8.40
2019-02-14T03:44:07.271Z,7.92
2019-02-14T03:46:39.516Z,6.45
2019-02-14T03:49:11.745Z,5.85
2019-02-14T03:51:43.991Z,6.42
2019-02-14T03:54:16.227Z,6.10
2019-02-14T03:56:48.499Z,6.90
2019-02-14T03:59:20.719Z,6.20
2019-02-14T04:01:52.977Z,6.20
2019-02-14T04:04:25.184Z,6.05
2019-02-14T04:06:57.443Z,6.17
2019-02-14T04:09:29.679Z,4.85
2019-02-14T04:12:01.931Z,5.30
2019-02-14T04:14:34.224Z,5.50
2019-02-14T04:17:06.459Z,5.67
2019-02-14T04:19:39.399Z,5.30
2019-02-14T04:22:11.635Z,5.42
2019-02-14T04:24:43.860Z,5.03
2019-02-14T04:27:16.113Z,4.78
2019-02-14T04:29:48.349Z,5.30
2019-02-14T04:32:20.591Z,6.60
2019-02-14T04:34:52.845Z,6.10
2019-02-14T04:37:25.111Z,5.85
2019-02-14T04:39:57.375Z,6.92
2019-02-14T04:42:29.623Z,5.70
2019-02-14T04:45:01.856Z,5.65
2019-02-14T04:47:34.158Z,4.85
2019-02-14T04:50:07.852Z,5.12
2019-02-14T04:52:40.124Z,5.45
2019-02-14T04:55:12.364Z,5.40
2019-02-14T04:57:44.595Z,4.97
2019-02-14T05:00:16.836Z,5.17
2019-02-14T05:06:08.527Z,5.17
2019-02-14T05:08:40.768Z,4.97
2019-02-14T05:11:13.037Z,4.65
2019-02-14T05:13:45.418Z,5.47
2019-02-14T05:16:17.648Z,5.17
2019-02-14T05:18:49.905Z,6.15
2019-02-14T05:21:22.145Z,6.08
2019-02-14T05:23:54.406Z,5.95
2019-02-14T05:26:26.640Z,5.95
2019-02-14T05:28:58.876Z,6.25
2019-02-14T05:31:31.108Z,6.05
2019-02-14T05:34:03.377Z,5.55
2019-02-14T05:36:35.628Z,5.42
2019-02-14T05:39:07.890Z,4.80
2019-02-14T05:41:40.183Z,7.10
2019-02-14T05:44:12.424Z,7.72
2019-02-14T05:46:44.670Z,7.33
2019-02-14T05:49:16.911Z,7.25
2019-02-14T05:51:49.149Z,5.85
2019-02-14T05:54:21.429Z,5.97
2019-02-14T05:56:53.672Z,5.58
2019-02-14T05:59:25.908Z,5.90
2019-02-14T06:01:58.133Z,5.95
2019-02-14T06:04:30.386Z,6.37
2019-02-14T06:07:02.932Z,5.85
2019-02-14T06:09:35.292Z,5.55
2019-02-14T06:12:07.513Z,5.83
2019-02-14T06:14:39.752Z,5.22
2019-02-14T06:17:11.983Z,6.17
2019-02-14T06:19:44.244Z,5.67
2019-02-14T06:22:16.475Z,5.80
2019-02-14T06:24:48.716Z,5.37
2019-02-14T06:27:20.970Z,4.75
2019-02-14T06:29:53.236Z,3.77
2019-02-14T06:32:25.523Z,3.75
2019-02-14T06:34:57.776Z,4.15
2019-02-14T06:37:30.022Z,4.22
2019-02-14T06:40:02.260Z,4.20
2019-02-14T06:42:34.493Z,4.35
2019-02-14T06:45:08.089Z,4.83
2019-02-14T06:47:40.418Z,4.28
2019-02-14T06:50:12.715Z,4.78
2019-02-14T06:52:44.951Z,5.47
2019-02-14T06:55:17.183Z,5.92
2019-02-14T06:57:49.424Z,5.35
2019-02-14T07:00:21.656Z,5.33
2019-02-14T07:02:53.906Z,4.22
2019-02-14T07:05:26.146Z,4.00
2019-02-14T07:07:58.440Z,4.05
2019-02-14T07:10:30.655Z,5.15
2019-02-14T07:13:02.906Z,6.00
2019-02-14T07:15:35.133Z,6.15
2019-02-14T07:18:07.430Z,6.42
2019-02-14T07:20:39.653Z,6.80
2019-02-14T07:23:12.019Z,6.87
2019-02-14T07:25:44.278Z,6.80
2019-02-14T07:28:16.540Z,6.60
2019-02-14T07:30:48.771Z,6.90
2019-02-14T07:33:21.031Z,6.92
2019-02-14T07:35:53.314Z,6.33
2019-02-14T07:38:25.569Z,7.85
2019-02-14T07:40:57.820Z,7.43
2019-02-14T07:43:30.230Z,7.78
2019-02-14T07:46:02.487Z,6.83
2019-02-14T07:48:34.735Z,7.78
2019-02-14T07:51:06.951Z,6.55
2019-02-14T07:53:39.526Z,8.25
2019-02-14T07:56:11.764Z,9.75
2019-02-14T07:58:44.110Z,9.88
2019-02-14T08:01:16.347Z,9.30
2019-02-14T08:03:48.596Z,9.63
2019-02-14T08:06:20.827Z,7.47
2019-02-14T08:08:53.071Z,7.53
2019-02-14T08:11:25.384Z,7.55
2019-02-14T08:13:57.631Z,7.47
2019-02-14T08:16:29.875Z,6.80
2019-02-14T08:19:02.108Z,4.83
2019-02-14T08:21:34.335Z,5.15
2019-02-14T08:24:06.572Z,5.35
2019-02-14T08:26:39.540Z,4.60
2019-02-14T08:29:11.787Z,4.55
2019-02-14T08:31:44.016Z,6.70
2019-02-14T08:34:16.251Z,5.80
2019-02-14T08:36:48.503Z,7.55
2019-02-14T08:39:20.753Z,6.97
2019-02-14T08:41:53.000Z,6.60
2019-02-14T08:44:25.341Z,7.10
2019-02-14T08:46:57.555Z,8.25
2019-02-14T08:49:29.802Z,7.33
2019-02-14T08:52:02.046Z,7.80
2019-02-14T08:54:34.286Z,8.40
2019-02-14T08:57:06.539Z,7.60
2019-02-14T08:59:38.783Z,7.17
2019-02-14T09:02:11.020Z,7.92
2019-02-14T09:04:43.268Z,7.47
2019-02-14T09:07:15.541Z,8.83
2019-02-14T09:09:47.791Z,11.15
2019-02-14T09:12:20.032Z,11.65
2019-02-14T09:14:52.288Z,11.83
2019-02-14T09:17:24.508Z,10.05
2019-02-14T09:19:56.770Z,9.50
2019-02-14T09:22:29.058Z,10.40
2019-02-14T09:25:01.317Z,9.63
2019-02-14T09:27:33.553Z,10.43
2019-02-14T09:30:07.374Z,10.43
2019-02-14T09:32:39.619Z,10.68
2019-02-14T09:35:11.936Z,9.68
2019-02-14T09:37:44.234Z,8.93
2019-02-14T09:40:17.276Z,9.33
2019-02-14T09:42:49.522Z,10.63
2019-02-14T09:45:21.851Z,9.80
2019-02-14T09:47:54.204Z,8.03
2019-02-14T09:50:26.522Z,8.98
2019-02-14T09:52:58.755Z,8.70
2019-02-14T09:55:31.008Z,12.28
2019-02-14T09:58:03.238Z,10.78
2019-02-14T10:00:35.505Z,10.63
2019-02-14T10:03:07.742Z,10.63
2019-02-14T10:05:40.003Z,9.85
2019-02-14T10:08:13.185Z,10.40
2019-02-14T10:10:45.579Z,9.88
2019-02-14T10:13:17.823Z,9.33
2019-02-14T10:15:50.071Z,11.03
2019-02-14T10:18:22.312Z,10.18
2019-02-14T10:20:54.567Z,9.55
2019-02-14T10:23:26.815Z,9.60
2019-02-14T10:25:59.314Z,12.23
2019-02-14T10:28:31.550Z,12.55
2019-02-14T10:31:03.819Z,11.57
2019-02-14T10:33:36.056Z,12.55
2019-02-14T10:36:08.309Z,11.93
2019-02-14T10:38:40.541Z,12.73
2019-02-14T10:41:12.788Z,13.03
2019-02-14T10:43:48.901Z,11.83
2019-02-14T10:46:19.003Z,11.90
2019-02-14T10:48:51.248Z,10.88
2019-02-14T10:51:23.524Z,11.63
2019-02-14T10:53:55.775Z,10.82
2019-02-14T10:56:28.057Z,10.58
2019-02-14T10:59:00.318Z,11.45
2019-02-14T11:01:32.582Z,10.40
2019-02-14T11:04:04.803Z,9.00
2019-02-14T11:06:37.045Z,9.60
2019-02-14T11:09:09.279Z,10.15
2019-02-14T11:11:41.552Z,9.75
2019-02-14T11:14:13.776Z,10.25
2019-02-14T11:16:46.042Z,10.48
2019-02-14T11:19:18.302Z,9.38
2019-02-14T11:21:50.551Z,9.28
2019-02-14T11:24:22.802Z,10.05
2019-02-14T11:26:55.036Z,8.88
2019-02-14T11:29:27.254Z,9.93
2019-02-14T11:31:59.509Z,9.65
2019-02-14T11:34:31.823Z,9.20
2019-02-14T11:37:04.092Z,8.40
2019-02-14T11:39:36.327Z,9.53
2019-02-14T11:42:08.600Z,8.43
2019-02-14T11:44:40.876Z,9.10
2019-02-14T11:47:13.127Z,8.40
2019-02-14T11:49:45.357Z,8.17
2019-02-14T11:52:17.664Z,9.05
2019-02-14T11:54:49.890Z,8.10
2019-02-14T11:57:23.051Z,8.40
2019-02-14T11:59:55.290Z,8.65
2019-02-14T12:02:27.604Z,9.05
2019-02-14T12:04:59.849Z,8.80
2019-02-14T12:07:32.119Z,8.60
2019-02-14T12:10:13.190Z,8.60
2019-02-14T12:12:40.190Z,8.08
2019-02-14T12:15:12.906Z,7.58
2019-02-14T12:17:45.231Z,8.88
2019-02-14T12:20:17.728Z,8.65
2019-02-14T12:22:49.973Z,8.10
2019-02-14T12:25:23.746Z,8.45
2019-02-14T12:27:55.988Z,7.90
2019-02-14T12:30:28.302Z,8.50
2019-02-14T12:33:00.629Z,8.13
2019-02-14T12:35:33.796Z,8.08
2019-02-14T12:38:06.045Z,8.33
2019-02-14T12:40:38.286Z,7.50
2019-02-14T12:43:10.533Z,8.00
2019-02-14T12:45:42.761Z,8.15
2019-02-14T12:48:14.999Z,7.33
2019-02-14T12:50:47.264Z,7.65
2019-02-14T12:53:19.535Z,8.13
2019-02-14T12:55:51.766Z,6.75
2019-02-14T12:58:24.007Z,6.65
2019-02-14T13:00:56.254Z,6.72
2019-02-14T13:03:28.474Z,6.60
2019-02-14T13:06:00.730Z,6.10
2019-02-14T13:08:32.971Z,6.05
2019-02-14T13:11:05.196Z,6.37
2019-02-14T13:13:37.446Z,6.30
2019-02-14T13:16:09.670Z,6.83
2019-02-14T13:18:41.988Z,6.35
2019-02-14T13:21:14.224Z,6.40
2019-02-14T13:23:46.629Z,7.05
2019-02-14T13:26:18.903Z,5.92
2019-02-14T13:28:51.120Z,4.33
2019-02-14T13:31:31.520Z,6.08
2019-02-14T13:33:57.375Z,5.37
2019-02-14T13:36:29.620Z,4.10
2019-02-14T13:39:01.859Z,5.30
2019-02-14T13:41:34.106Z,4.40
2019-02-14T13:44:06.387Z,4.80
2019-02-14T13:46:38.628Z,4.65
2019-02-14T13:49:10.886Z,4.95
2019-02-14T13:51:43.120Z,5.20
2019-02-14T13:54:15.360Z,5.05
2019-02-14T13:56:53.933Z,4.45
2019-02-14T13:59:21.559Z,3.95
2019-02-14T14:01:53.796Z,3.95
2019-02-14T14:04:26.031Z,3.72
2019-02-14T14:06:58.312Z,4.20
2019-02-14T14:09:38.434Z,3.35
2019-02-14T14:12:04.527Z,4.78
2019-02-14T14:14:36.773Z,4.28
2019-02-14T14:17:09.025Z,3.47
2019-02-14T14:19:41.267Z,3.42
2019-02-14T14:22:13.508Z,3.80
2019-02-14T14:24:45.745Z,2.95
2019-02-14T14:27:18.097Z,3.37
2019-02-14T14:29:50.334Z,3.35
2019-02-14T14:32:22.575Z,3.55
2019-02-14T14:34:54.803Z,3.10
2019-02-14T14:37:27.028Z,3.10
2019-02-14T14:39:59.267Z,3.25
2019-02-14T14:42:33.196Z,3.20
2019-02-14T14:45:07.644Z,3.27
2019-02-14T14:47:40.013Z,2.80
2019-02-14T14:50:12.239Z,2.85
2019-02-14T14:52:44.500Z,3.30
2019-02-14T14:55:16.724Z,2.92
2019-02-14T14:57:48.970Z,2.33
2019-02-14T15:00:21.190Z,2.30
2019-02-14T15:02:53.435Z,2.35
2019-02-14T15:05:25.758Z,3.27
2019-02-14T15:07:58.035Z,3.70
2019-02-14T15:10:30.260Z,3.27
2019-02-14T15:13:02.555Z,3.12
2019-02-14T15:15:34.805Z,2.87
2019-02-14T15:18:07.122Z,2.90
2019-02-14T15:20:40.038Z,3.00
2019-02-14T15:23:12.273Z,2.95
2019-02-14T15:25:44.525Z,3.40
2019-02-14T15:28:16.787Z,3.02
2019-02-14T15:30:49.040Z,2.87
2019-02-14T15:33:21.345Z,3.45
2019-02-14T15:35:53.569Z,2.70
2019-02-14T15:38:25.814Z,2.80
2019-02-14T15:40:58.057Z,3.25
2019-02-14T15:43:30.331Z,2.58
2019-02-14T15:46:02.564Z,2.72
2019-02-14T15:48:34.880Z,2.95
2019-02-14T15:51:07.105Z,2.60
2019-02-14T15:53:41.273Z,3.30
2019-02-14T15:56:14.053Z,3.10
2019-02-14T15:58:46.292Z,2.93
2019-02-14T16:01:19.019Z,2.83
2019-02-14T16:03:51.480Z,2.90
2019-02-14T16:06:25.616Z,2.17
2019-02-14T16:08:57.682Z,2.70
2019-02-14T16:11:29.918Z,3.25
2019-02-14T16:14:02.246Z,3.33
2019-02-14T16:16:34.501Z,2.72
2019-02-14T16:19:08.704Z,2.67
2019-02-14T16:21:40.712Z,2.92
2019-02-14T16:24:14.409Z,4.53
2019-02-14T16:26:46.938Z,5.78
2019-02-14T16:29:19.254Z,6.42
2019-02-14T16:31:51.494Z,5.62
2019-02-14T16:34:23.804Z,4.53
2019-02-14T16:36:56.038Z,4.55
2019-02-14T16:39:28.782Z,4.33
2019-02-14T16:42:01.003Z,3.98
2019-02-14T16:44:33.270Z,3.40
2019-02-14T16:47:05.486Z,2.70
2019-02-14T16:49:37.763Z,3.12
2019-02-14T16:52:10.016Z,2.15
2019-02-14T16:54:42.284Z,1.77
2019-02-14T16:57:14.534Z,1.98
2019-02-14T16:59:46.855Z,2.12
2019-02-14T17:02:19.127Z,1.87
2019-02-14T17:04:51.386Z,2.15
2019-02-14T17:07:23.615Z,1.92
2019-02-14T17:09:56.872Z,1.22
2019-02-14T17:12:29.087Z,1.50
2019-02-14T17:15:01.425Z,1.55
2019-02-14T17:17:33.669Z,1.80
2019-02-14T17:20:07.636Z,1.65
2019-02-14T17:22:40.394Z,1.80
2019-02-14T17:25:12.622Z,1.77
2019-02-14T17:27:44.857Z,1.40
2019-02-14T17:30:17.097Z,1.40
2019-02-14T17:32:49.320Z,1.30
2019-02-14T17:35:21.560Z,1.50
2019-02-14T17:37:53.779Z,1.43
2019-02-14T17:40:26.024Z,1.25
2019-02-14T17:42:58.244Z,1.52
2019-02-14T17:45:30.503Z,2.02
2019-02-14T17:48:02.729Z,1.52
2019-02-14T17:50:34.997Z,2.15
2019-02-14T17:53:07.246Z,1.50
2019-02-14T17:55:39.495Z,2.15
2019-02-14T17:58:11.728Z,2.67
2019-02-14T18:00:43.955Z,2.30
2019-02-14T18:03:16.183Z,2.05
2019-02-14T18:05:48.431Z,2.40
2019-02-14T18:08:20.681Z,2.90
2019-02-14T18:10:54.884Z,2.60
2019-02-14T18:13:26.879Z,2.98
2019-02-14T18:15:59.106Z,2.55
2019-02-14T18:18:31.322Z,2.58
2019-02-14T18:21:03.728Z,3.00
2019-02-14T18:23:35.962Z,2.35
2019-02-14T18:26:08.268Z,2.45
2019-02-14T18:28:40.507Z,2.72
2019-02-14T18:31:12.760Z,2.42
2019-02-14T18:33:44.971Z,3.02
2019-02-14T18:36:17.247Z,2.72
2019-02-14T18:38:49.595Z,3.10
2019-02-14T18:41:22.012Z,2.58
2019-02-14T18:43:54.292Z,2.80
2019-02-14T18:46:26.550Z,5.67
2019-02-14T18:48:58.784Z,10.50
2019-02-14T18:51:31.025Z,6.97
2019-02-14T18:54:03.247Z,4.20
2019-02-14T18:56:35.503Z,4.12
2019-02-14T18:59:07.738Z,4.20
2019-02-14T19:01:39.968Z,4.17
2019-02-14T19:04:12.205Z,3.98
2019-02-14T19:06:44.471Z,5.28
2019-02-14T19:09:16.746Z,6.05
2019-02-14T19:11:49.018Z,5.70
2019-02-14T19:14:21.252Z,5.25
2019-02-14T19:16:53.650Z,5.65
2019-02-14T19:19:25.904Z,5.60
2019-02-14T19:21:58.143Z,5.53
2019-02-14T19:24:30.383Z,5.40
2019-02-14T19:27:02.646Z,5.05
2019-02-14T19:29:36.400Z,4.60
2019-02-14T19:32:08.781Z,4.65
2019-02-14T19:34:40.995Z,4.40
2019-02-14T19:37:13.242Z,4.65
2019-02-14T19:39:45.464Z,4.65
2019-02-14T19:42:17.707Z,5.08
2019-02-14T19:44:49.990Z,5.05
2019-02-14T19:47:22.227Z,4.62
2019-02-14T19:49:54.476Z,5.25
2019-02-14T19:52:26.786Z,5.45
2019-02-14T19:54:59.053Z,5.40
2019-02-14T19:57:31.340Z,5.65
2019-02-14T20:00:07.124Z,5.78
2019-02-14T20:02:39.371Z,5.90
2019-02-14T20:05:11.627Z,5.97
2019-02-14T20:07:43.936Z,6.05
2019-02-14T20:10:16.183Z,5.28
2019-02-14T20:12:48.439Z,6.20
2019-02-14T20:15:20.764Z,6.12
2019-02-14T20:17:53.054Z,5.47
2019-02-14T20:20:25.256Z,5.78
2019-02-14T20:22:57.518Z,5.72
2019-02-14T20:25:29.738Z,6.17
2019-02-14T20:28:02.030Z,6.30
2019-02-14T20:30:34.266Z,6.28
2019-02-14T20:33:06.510Z,6.40
2019-02-14T20:35:38.748Z,7.03
2019-02-14T20:38:10.991Z,6.87
2019-02-14T20:40:43.241Z,5.92
2019-02-14T20:43:15.487Z,6.08
2019-02-14T20:45:47.766Z,6.50
2019-02-14T20:48:20.015Z,6.03
2019-02-14T20:50:52.257Z,6.20
2019-02-14T20:53:24.519Z,6.80
2019-02-14T20:55:56.743Z,6.85
2019-02-14T20:58:29.000Z,5.78
2019-02-14T21:01:01.299Z,5.90
2019-02-14T21:03:33.545Z,5.10
2019-02-14T21:06:05.852Z,6.35
2019-02-14T21:08:38.123Z,5.42
2019-02-14T21:11:10.346Z,5.15
2019-02-14T21:13:42.632Z,4.97
2019-02-14T21:16:14.846Z,4.45
2019-02-14T21:18:47.087Z,4.83
2019-02-14T21:21:19.398Z,5.22
2019-02-14T21:23:51.643Z,4.20
2019-02-14T21:26:23.922Z,4.22
2019-02-14T21:28:56.200Z,4.60
2019-02-14T21:31:28.426Z,4.40
2019-02-14T21:34:00.699Z,4.45
2019-02-14T21:36:33.134Z,4.15
2019-02-14T21:39:05.483Z,4.37
2019-02-14T21:41:37.951Z,4.78
2019-02-14T21:44:10.196Z,4.55
2019-02-14T21:46:42.465Z,5.87
2019-02-14T21:49:14.690Z,5.12
2019-02-14T21:51:46.974Z,5.37
2019-02-14T21:54:19.253Z,6.03
2019-02-14T21:56:52.419Z,5.28
2019-02-14T21:59:24.649Z,6.08
2019-02-14T22:01:56.903Z,6.55
2019-02-14T22:04:29.156Z,6.58
2019-02-14T22:07:01.410Z,5.87
2019-02-14T22:09:33.731Z,6.55
2019-02-14T22:12:05.978Z,6.17
2019-02-14T22:14:38.229Z,6.15
2019-02-14T22:17:10.517Z,6.50
2019-02-14T22:19:43.068Z,5.78
2019-02-14T22:22:15.395Z,6.40
2019-02-14T22:24:47.685Z,6.58
2019-02-14T22:27:19.960Z,6.87
2019-02-14T22:29:52.197Z,6.62
2019-02-14T22:32:24.435Z,6.95
2019-02-14T22:34:56.663Z,5.65
2019-02-14T22:37:28.972Z,6.67
2019-02-14T22:40:01.207Z,6.50
2019-02-14T22:42:33.455Z,6.15
2019-02-14T22:45:06.648Z,6.22
2019-02-14T22:47:38.922Z,5.60
2019-02-14T22:50:11.523Z,6.53
2019-02-14T22:52:43.784Z,5.72
2019-02-14T22:55:16.018Z,5.72
2019-02-14T22:57:48.256Z,5.42
2019-02-14T23:00:32.749Z,5.62
2019-02-14T23:03:05.065Z,5.53
2019-02-14T23:05:37.290Z,6.17
2019-02-14T23:08:09.538Z,6.30
2019-02-14T23:10:41.776Z,5.90
2019-02-14T23:13:14.032Z,5.70
2019-02-14T23:15:46.444Z,5.70
2019-02-14T23:18:18.907Z,6.65
2019-02-14T23:20:51.139Z,5.85
2019-02-14T23:23:23.409Z,6.22
2019-02-14T23:25:55.647Z,6.17
2019-02-14T23:28:27.962Z,6.33
2019-02-14T23:31:00.186Z,6.30
2019-02-14T23:33:32.448Z,5.83
2019-02-14T23:36:04.725Z,5.75
2019-02-14T23:38:36.972Z,6.50
2019-02-14T23:41:09.209Z,6.28
2019-02-14T23:43:41.474Z,6.35
2019-02-14T23:46:13.723Z,6.37
2019-02-14T23:48:45.986Z,5.95
2019-02-14T23:51:18.273Z,6.55
2019-02-14T23:53:50.537Z,5.57
2019-02-14T23:56:22.745Z,6.15
2019-02-14T23:58:54.994Z,5.80
